createdAt,value
2022-12-03T00:00:11.852Z,84.31
2022-12-03T00:05:14.775Z,84.22
2022-12-03T00:10:16.947Z,84.15
2022-12-03T00:15:19.255Z,83.88
2022-12-03T00:20:24.155Z,84.18
2022-12-03T00:25:26.469Z,84.60
2022-12-03T00:30:28.585Z,84.58
2022-12-03T00:35:30.669Z,85.04
2022-12-03T00:40:32.759Z,84.64
2022-12-03T00:45:34.815Z,85.18
2022-12-03T00:50:37.085Z,85.63
2022-12-03T00:55:39.218Z,85.82
2022-12-03T01:00:41.316Z,85.82
2022-12-03T01:05:43.336Z,86.12
2022-12-03T01:10:45.561Z,86.61
2022-12-03T01:15:47.775Z,86.87
2022-12-03T01:20:49.928Z,86.83
2022-12-03T01:25:52.056Z,86.72
2022-12-03T01:31:14.399Z,86.96
2022-12-03T01:36:16.610Z,86.80
2022-12-03T01:41:20.671Z,86.36
2022-12-03T01:46:27.449Z,86.38
2022-12-03T01:51:30.649Z,86.66
2022-12-03T01:56:32.836Z,86.96
2022-12-03T02:01:34.952Z,86.20
2022-12-03T02:06:37.094Z,85.83
2022-12-03T02:11:43.151Z,86.16
2022-12-03T02:16:46.084Z,86.29
2022-12-03T02:21:56.607Z,85.89
2022-12-03T02:26:58.970Z,85.90
2022-12-03T02:32:01.101Z,85.88
2022-12-03T02:37:06.236Z,85.90
2022-12-03T02:42:27.948Z,85.83
2022-12-03T02:47:31.910Z,85.79
2022-12-03T02:52:34.443Z,85.64
2022-12-03T02:57:38.829Z,85.58
2022-12-03T03:02:41.972Z,85.44
2022-12-03T03:07:44.686Z,85.32
2022-12-03T03:12:46.860Z,85.48
2022-12-03T03:17:49.078Z,85.12
2022-12-03T03:22:51.218Z,84.71
2022-12-03T03:27:53.396Z,84.49
2022-12-03T03:32:55.465Z,84.49
2022-12-03T03:37:58.829Z,84.43
2022-12-03T03:43:01.371Z,84.62
2022-12-03T03:48:03.865Z,84.84
2022-12-03T03:53:06.177Z,84.52
2022-12-03T03:58:08.762Z,84.74
2022-12-03T04:03:11.162Z,84.73
2022-12-03T04:08:13.294Z,84.87
2022-12-03T04:13:15.441Z,84.41
2022-12-03T04:18:36.011Z,84.47
2022-12-03T04:23:38.306Z,84.32
2022-12-03T04:28:49.495Z,83.98
2022-12-03T04:34:10.572Z,84.18
2022-12-03T04:39:12.656Z,83.94
2022-12-03T04:44:33.218Z,83.86
2022-12-03T04:49:37.581Z,83.55
2022-12-03T04:54:40.713Z,83.42
2022-12-03T04:59:42.846Z,83.38
2022-12-03T05:04:44.999Z,83.17
2022-12-03T05:09:47.069Z,83.48
2022-12-03T05:14:49.179Z,83.96
2022-12-03T05:20:10.058Z,84.29
2022-12-03T05:25:12.204Z,84.55
2022-12-03T05:30:14.705Z,84.63
2022-12-03T05:35:17.000Z,84.42
2022-12-03T05:40:20.376Z,84.63
2022-12-03T05:45:27.922Z,84.97
2022-12-03T05:50:32.825Z,84.94
2022-12-03T05:55:34.972Z,84.78
2022-12-03T06:00:42.380Z,84.74
2022-12-03T06:05:45.194Z,84.77
2022-12-03T06:10:47.275Z,84.47
2022-12-03T06:15:49.509Z,84.46
2022-12-03T06:20:51.703Z,84.58
2022-12-03T06:25:53.828Z,84.28
2022-12-03T06:30:55.968Z,84.52
2022-12-03T06:35:58.224Z,84.35
2022-12-03T06:41:00.293Z,84.25
2022-12-03T06:46:02.480Z,83.97
2022-12-03T06:51:04.745Z,84.06
2022-12-03T06:56:07.081Z,83.91
2022-12-03T07:01:09.351Z,83.38
2022-12-03T07:06:11.597Z,82.66
2022-12-03T07:11:32.162Z,82.33
2022-12-03T07:16:35.842Z,82.40
2022-12-03T07:21:38.325Z,81.59
2022-12-03T07:26:40.468Z,82.06
2022-12-03T07:31:42.603Z,82.32
2022-12-03T07:36:44.809Z,82.43
2022-12-03T07:41:47.009Z,82.46
2022-12-03T07:46:49.347Z,81.90
2022-12-03T07:51:54.824Z,81.73
2022-12-03T07:57:01.339Z,82.04
2022-12-03T08:02:04.277Z,81.43
2022-12-03T08:07:06.424Z,80.82
2022-12-03T08:12:16.438Z,80.37
2022-12-03T08:17:19.881Z,79.88
2022-12-03T08:22:22.358Z,79.71
2022-12-03T08:27:24.425Z,79.49
2022-12-03T08:32:26.727Z,79.24
2022-12-03T08:37:29.748Z,78.55
2022-12-03T08:42:42.996Z,77.61
2022-12-03T08:47:45.313Z,77.18
2022-12-03T08:52:47.421Z,77.14
2022-12-03T08:57:49.539Z,76.67
2022-12-03T09:02:58.954Z,76.85
2022-12-03T09:08:01.283Z,76.10
2022-12-03T09:13:03.536Z,75.68
2022-12-03T09:18:05.689Z,74.32
2022-12-03T09:23:08.228Z,73.50
2022-12-03T09:28:10.324Z,73.52
2022-12-03T09:33:12.520Z,72.16
2022-12-03T09:38:14.652Z,68.69
2022-12-03T09:43:17.121Z,66.88
2022-12-03T09:48:20.742Z,67.29
2022-12-03T09:53:28.553Z,67.63
2022-12-03T09:58:34.688Z,66.58
2022-12-03T10:03:42.810Z,66.52
2022-12-03T10:08:48.517Z,65.08
2022-12-03T10:13:51.545Z,63.32
2022-12-03T10:18:57.141Z,62.36
2022-12-03T10:24:25.849Z,49.68
2022-12-03T10:29:35.883Z,36.56
2022-12-03T10:34:41.502Z,36.19
2022-12-03T10:39:56.488Z,36.77
2022-12-03T10:45:22.400Z,46.09
2022-12-03T10:50:24.481Z,49.93
2022-12-03T10:55:28.957Z,47.34
2022-12-03T11:00:31.106Z,41.96
2022-12-03T11:05:33.852Z,38.07
2022-12-03T11:10:36.170Z,43.95
2022-12-03T11:15:45.309Z,49.94
2022-12-03T11:20:47.421Z,51.79
2022-12-03T11:25:50.636Z,48.77
2022-12-03T11:31:02.621Z,44.90
2022-12-03T11:36:04.766Z,35.60
2022-12-03T11:41:15.816Z,32.02
2022-12-03T11:46:21.866Z,31.53
2022-12-03T11:51:27.687Z,29.26
2022-12-03T11:56:30.263Z,30.06
2022-12-03T12:01:39.045Z,35.87
2022-12-03T12:06:43.783Z,43.41
2022-12-03T12:11:45.916Z,40.70
2022-12-03T12:16:55.299Z,40.10
2022-12-03T12:22:25.421Z,39.83
2022-12-03T12:27:35.200Z,39.92
2022-12-03T12:33:08.305Z,39.99
2022-12-03T12:38:19.800Z,41.07
2022-12-03T12:43:24.388Z,44.32
2022-12-03T12:48:31.099Z,47.01
2022-12-03T12:53:35.465Z,52.40
2022-12-03T12:58:37.700Z,55.78
2022-12-03T13:03:40.165Z,57.80
2022-12-03T13:08:48.823Z,60.45
2022-12-03T13:13:51.918Z,62.10
2022-12-03T13:18:56.480Z,62.90
2022-12-03T13:23:58.788Z,63.97
2022-12-03T13:29:06.344Z,64.45
2022-12-03T13:34:19.065Z,64.68
2022-12-03T13:39:27.751Z,65.23
2022-12-03T13:44:32.156Z,65.82
2022-12-03T13:49:34.839Z,66.62
2022-12-03T13:54:39.340Z,65.82
2022-12-03T13:59:41.604Z,66.06
2022-12-03T14:04:43.675Z,66.28
2022-12-03T14:09:45.780Z,66.65
2022-12-03T14:14:47.832Z,67.12
2022-12-03T14:19:50.101Z,67.52
2022-12-03T14:24:53.686Z,68.05
2022-12-03T14:29:56.230Z,69.31
2022-12-03T14:34:58.601Z,68.49
2022-12-03T14:40:00.690Z,68.31
2022-12-03T14:45:03.280Z,68.61
2022-12-03T14:50:06.107Z,68.24
2022-12-03T14:55:08.772Z,69.16
2022-12-03T15:00:11.783Z,70.25
2022-12-03T15:05:13.907Z,70.78
2022-12-03T15:10:16.905Z,72.21
2022-12-03T15:15:19.007Z,73.33
2022-12-03T15:20:21.218Z,74.25
2022-12-03T15:25:24.380Z,75.12
2022-12-03T15:30:26.473Z,76.21
2022-12-03T15:35:31.422Z,77.10
2022-12-03T15:40:33.524Z,77.96
2022-12-03T15:45:36.200Z,78.85
2022-12-03T15:50:40.317Z,79.83
2022-12-03T15:55:42.628Z,80.51
2022-12-03T16:00:44.764Z,81.03
2022-12-03T16:05:52.584Z,81.45
2022-12-03T16:10:54.810Z,82.00
2022-12-03T16:15:56.989Z,82.43
2022-12-03T16:20:59.127Z,82.71
2022-12-03T16:26:01.196Z,82.98
2022-12-03T16:31:04.032Z,83.46
2022-12-03T16:36:06.469Z,83.75
2022-12-03T16:41:09.745Z,84.06
2022-12-03T16:46:14.738Z,84.25
2022-12-03T16:51:19.315Z,84.62
2022-12-03T16:56:21.754Z,85.01
2022-12-03T17:01:24.050Z,85.20
2022-12-03T17:06:26.254Z,84.15
2022-12-03T17:11:28.495Z,83.43
2022-12-03T17:16:30.627Z,83.10
2022-12-03T17:21:35.027Z,82.83
2022-12-03T17:26:37.544Z,82.51
2022-12-03T17:31:42.208Z,82.27
2022-12-03T17:36:45.011Z,82.13
2022-12-03T17:41:47.094Z,82.43
2022-12-03T17:46:49.354Z,83.23
2022-12-03T17:51:51.574Z,84.16
2022-12-03T17:56:53.671Z,84.81
2022-12-03T18:01:55.807Z,85.48
2022-12-03T18:07:02.210Z,85.99
2022-12-03T18:12:05.095Z,86.53
2022-12-03T18:17:07.258Z,86.99
2022-12-03T18:22:09.887Z,87.34
2022-12-03T18:27:12.086Z,87.55
2022-12-03T18:32:27.606Z,87.81
2022-12-03T18:37:32.269Z,87.88
2022-12-03T18:42:34.407Z,87.89
2022-12-03T18:47:36.592Z,87.89
2022-12-03T18:52:39.374Z,87.86
2022-12-03T18:57:41.480Z,87.95
2022-12-03T19:03:02.377Z,87.62
2022-12-03T19:08:13.993Z,86.08
2022-12-03T19:13:16.246Z,85.60
2022-12-03T19:18:18.322Z,85.68
2022-12-03T19:23:20.574Z,85.75
2022-12-03T19:28:22.872Z,85.96
2022-12-03T19:33:28.615Z,86.61
2022-12-03T19:38:31.643Z,87.34
2022-12-03T19:43:36.496Z,87.90
2022-12-03T19:48:40.533Z,88.17
2022-12-03T19:53:43.055Z,88.27
2022-12-03T19:58:47.012Z,88.31
2022-12-03T20:03:51.578Z,88.16
2022-12-03T20:09:01.358Z,88.09
2022-12-03T20:14:09.024Z,87.58
2022-12-03T20:19:13.566Z,87.72
2022-12-03T20:24:17.384Z,87.35
2022-12-03T20:29:19.564Z,86.79
2022-12-03T20:34:21.643Z,86.52
2022-12-03T20:39:23.869Z,86.58
2022-12-03T20:44:25.979Z,86.56
2022-12-03T20:49:28.067Z,86.55
2022-12-03T20:54:30.299Z,86.38
2022-12-03T20:59:32.987Z,86.41
2022-12-03T21:04:35.180Z,86.72
2022-12-03T21:09:37.499Z,86.73
2022-12-03T21:14:39.729Z,86.79
2022-12-03T21:19:41.814Z,87.03
2022-12-03T21:24:44.136Z,86.65
2022-12-03T21:29:46.178Z,86.67
2022-12-03T21:34:48.252Z,86.66
2022-12-03T21:39:50.461Z,86.78
2022-12-03T21:44:52.676Z,86.91
2022-12-03T21:49:55.194Z,86.93
2022-12-03T21:54:57.509Z,86.68
2022-12-03T21:59:59.796Z,86.41
2022-12-03T22:05:01.877Z,86.04
2022-12-03T22:10:06.009Z,84.98
2022-12-03T22:15:14.881Z,84.20
2022-12-03T22:20:20.609Z,83.74
2022-12-03T22:25:22.732Z,83.42
2022-12-03T22:30:25.111Z,83.57
2022-12-03T22:35:27.195Z,83.68
2022-12-03T22:40:29.276Z,84.31
2022-12-03T22:45:31.342Z,84.51
2022-12-03T22:50:33.467Z,84.40
2022-12-03T22:55:35.545Z,84.30
2022-12-03T23:00:40.588Z,84.78
2022-12-03T23:05:42.710Z,84.67
2022-12-03T23:10:46.714Z,83.91
2022-12-03T23:15:51.852Z,83.96
2022-12-03T23:20:56.116Z,85.26
2022-12-03T23:26:07.457Z,84.08
2022-12-03T23:31:28.439Z,83.91
2022-12-03T23:36:32.756Z,84.30
2022-12-03T23:41:34.825Z,84.88
2022-12-03T23:46:39.229Z,85.65
2022-12-03T23:51:41.406Z,86.59
2022-12-03T23:56:43.570Z,87.02
